createdAt,value
2018-01-08T00:00:42.324Z,99.99
2018-01-08T00:01:42.050Z,99.99
2018-01-08T00:02:42.298Z,99.99
2018-01-08T00:03:42.275Z,99.99
2018-01-08T00:04:42.255Z,99.99
2018-01-08T00:05:42.242Z,99.99
2018-01-08T00:06:42.218Z,99.99
2018-01-08T00:07:42.212Z,99.99
2018-01-08T00:08:42.193Z,99.99
2018-01-08T00:09:42.165Z,99.99
2018-01-08T00:10:42.148Z,99.99
2018-01-08T00:11:42.132Z,99.99
2018-01-08T00:12:42.112Z,99.99
2018-01-08T00:13:42.097Z,99.99
2018-01-08T00:14:42.091Z,99.99
2018-01-08T00:15:42.061Z,99.99
2018-01-08T00:16:42.042Z,99.99
2018-01-08T00:17:42.025Z,99.99
2018-01-08T00:18:42.018Z,99.99
2018-01-08T00:19:41.993Z,99.99
2018-01-08T00:20:42.002Z,99.99
2018-01-08T00:21:41.698Z,99.99
2018-01-08T00:22:41.937Z,99.99
2018-01-08T00:23:41.921Z,99.99
2018-01-08T00:24:41.903Z,99.99
2018-01-08T00:25:41.897Z,99.99
2018-01-08T00:26:41.864Z,99.99
2018-01-08T00:27:41.857Z,99.99
2018-01-08T00:28:41.836Z,99.99
2018-01-08T00:29:41.815Z,99.99
2018-01-08T00:30:41.793Z,99.99
2018-01-08T00:31:41.777Z,99.99
2018-01-08T00:32:41.759Z,99.99
2018-01-08T00:33:41.747Z,99.99
2018-01-08T00:34:41.737Z,99.99
2018-01-08T00:35:41.449Z,99.99
2018-01-08T00:36:41.696Z,99.99
2018-01-08T00:37:41.668Z,99.99
2018-01-08T00:38:41.661Z,99.99
2018-01-08T00:39:41.386Z,99.99
2018-01-08T00:40:41.613Z,99.99
2018-01-08T00:41:41.611Z,99.99
2018-01-08T00:42:41.585Z,99.99
2018-01-08T00:43:41.570Z,99.99
2018-01-08T00:44:41.553Z,99.99
2018-01-08T00:45:41.534Z,99.99
2018-01-08T00:46:41.507Z,99.99
2018-01-08T00:47:41.506Z,99.99
2018-01-08T00:48:41.484Z,99.99
2018-01-08T00:49:41.456Z,99.99
2018-01-08T00:50:41.440Z,99.99
2018-01-08T00:51:41.418Z,99.99
2018-01-08T00:52:41.400Z,99.99
2018-01-08T00:53:41.393Z,99.99
2018-01-08T00:54:41.375Z,99.99
2018-01-08T00:55:41.354Z,99.99
2018-01-08T00:56:41.336Z,99.99
2018-01-08T00:57:41.320Z,99.99
2018-01-08T00:58:41.300Z,99.99
2018-01-08T00:59:41.276Z,99.99
2018-01-08T01:00:41.272Z,99.99
2018-01-08T01:01:41.241Z,99.99
2018-01-08T01:02:41.225Z,99.99
2018-01-08T01:03:41.224Z,99.99
2018-01-08T01:04:41.188Z,99.99
2018-01-08T01:05:41.170Z,99.99
2018-01-08T01:06:41.158Z,99.99
2018-01-08T01:07:41.135Z,99.99
2018-01-08T01:08:41.142Z,99.99
2018-01-08T01:09:41.097Z,99.99
2018-01-08T01:10:40.824Z,99.99
2018-01-08T01:11:41.072Z,99.99
2018-01-08T01:12:41.049Z,99.99
2018-01-08T01:13:41.030Z,99.99
2018-01-08T01:14:41.010Z,99.99
2018-01-08T01:15:40.998Z,99.99
2018-01-08T01:16:40.976Z,99.99
2018-01-08T01:17:40.967Z,99.99
2018-01-08T01:18:40.940Z,99.99
2018-01-08T01:19:40.674Z,99.99
2018-01-08T01:20:40.912Z,99.99
2018-01-08T01:21:40.886Z,99.99
2018-01-08T01:22:40.877Z,99.99
2018-01-08T01:23:40.864Z,99.99
2018-01-08T01:24:40.838Z,99.99
2018-01-08T01:25:40.814Z,99.99
2018-01-08T01:26:40.803Z,99.99
2018-01-08T01:27:40.785Z,99.99
2018-01-08T01:28:40.769Z,99.99
2018-01-08T01:29:40.755Z,99.99
2018-01-08T01:30:40.736Z,99.99
2018-01-08T01:31:40.722Z,99.99
2018-01-08T01:32:40.691Z,99.99
2018-01-08T01:33:40.684Z,99.99
2018-01-08T01:34:40.660Z,99.99
2018-01-08T01:35:40.653Z,99.99
2018-01-08T01:36:40.619Z,99.99
2018-01-08T01:37:40.601Z,99.99
2018-01-08T01:38:40.591Z,99.99
2018-01-08T01:39:40.571Z,99.99
2018-01-08T01:40:40.559Z,99.99
2018-01-08T01:41:40.539Z,99.99
2018-01-08T01:42:40.519Z,99.99
2018-01-08T01:43:40.504Z,99.99
2018-01-08T01:44:40.475Z,99.99
2018-01-08T01:45:40.469Z,99.99
2018-01-08T01:46:40.442Z,99.99
2018-01-08T01:47:40.431Z,99.99
2018-01-08T01:48:40.405Z,99.99
2018-01-08T01:49:40.387Z,99.99
2018-01-08T01:50:40.370Z,99.99
2018-01-08T01:51:40.351Z,99.99
2018-01-08T01:52:40.341Z,99.99
2018-01-08T01:53:40.320Z,99.99
2018-01-08T01:54:40.304Z,99.99
2018-01-08T01:55:40.284Z,99.99
2018-01-08T01:56:40.267Z,99.99
2018-01-08T01:57:40.297Z,99.99
2018-01-08T01:58:40.240Z,99.99
2018-01-08T01:59:40.209Z,99.99
2018-01-08T02:00:40.201Z,99.99
2018-01-08T02:01:40.182Z,99.99
2018-01-08T02:02:40.169Z,99.99
2018-01-08T02:03:40.136Z,99.99
2018-01-08T02:04:40.133Z,99.99
2018-01-08T02:05:40.106Z,99.99
2018-01-08T02:06:40.089Z,99.99
2018-01-08T02:07:40.081Z,99.99
2018-01-08T02:08:40.052Z,99.99
2018-01-08T02:09:40.036Z,99.99
2018-01-08T02:10:40.026Z,99.99
2018-01-08T02:11:40.001Z,99.99
2018-01-08T02:12:39.991Z,99.99
2018-01-08T02:13:39.968Z,99.99
2018-01-08T02:14:39.942Z,99.99
2018-01-08T02:15:39.923Z,99.99
2018-01-08T02:16:39.906Z,99.99
2018-01-08T02:17:39.888Z,99.99
2018-01-08T02:18:39.876Z,99.99
2018-01-08T02:19:39.851Z,99.99
2018-01-08T02:20:39.833Z,99.99
2018-01-08T02:21:39.828Z,99.99
2018-01-08T02:22:39.807Z,99.99
2018-01-08T02:23:39.782Z,99.99
2018-01-08T02:24:39.774Z,99.99
2018-01-08T02:25:39.752Z,99.99
2018-01-08T02:26:39.728Z,99.99
2018-01-08T02:27:39.722Z,99.99
2018-01-08T02:28:39.691Z,99.99
2018-01-08T02:29:39.675Z,99.99
2018-01-08T02:30:39.662Z,99.99
2018-01-08T02:31:39.645Z,99.99
2018-01-08T02:32:39.626Z,99.99
2018-01-08T02:33:39.611Z,99.99
2018-01-08T02:34:39.585Z,99.99
2018-01-08T02:35:39.575Z,99.99
2018-01-08T02:36:39.555Z,99.99
2018-01-08T02:37:39.541Z,99.99
2018-01-08T02:38:39.525Z,99.99
2018-01-08T02:39:39.494Z,99.99
2018-01-08T02:40:39.488Z,99.99
2018-01-08T02:41:39.469Z,99.99
2018-01-08T02:42:39.442Z,99.99
2018-01-08T02:43:39.424Z,99.99
2018-01-08T02:44:39.415Z,99.99
2018-01-08T02:45:39.384Z,99.99
2018-01-08T02:46:39.117Z,99.99
2018-01-08T02:47:39.359Z,99.99
2018-01-08T02:48:39.334Z,99.99
2018-01-08T02:49:39.317Z,99.99
2018-01-08T02:50:39.309Z,99.99
2018-01-08T02:51:39.290Z,99.99
2018-01-08T02:52:39.264Z,99.99
2018-01-08T02:53:39.251Z,99.99
2018-01-08T02:54:39.224Z,99.99
2018-01-08T02:55:39.205Z,99.99
2018-01-08T02:56:39.193Z,99.99
2018-01-08T02:57:39.176Z,99.99
2018-01-08T02:58:39.160Z,99.99
2018-01-08T02:59:39.140Z,99.99
2018-01-08T03:00:39.128Z,99.99
2018-01-08T03:01:38.841Z,99.99
2018-01-08T03:02:39.078Z,99.99
2018-01-08T03:03:39.072Z,99.99
2018-01-08T03:04:39.050Z,99.99
2018-01-08T03:05:39.033Z,99.99
2018-01-08T03:06:38.757Z,99.99
2018-01-08T03:07:39.034Z,99.99
2018-01-08T03:08:38.984Z,99.99
2018-01-08T03:09:38.952Z,99.99
2018-01-08T03:10:38.947Z,99.99
2018-01-08T03:11:38.915Z,99.99
2018-01-08T03:12:38.906Z,99.99
2018-01-08T03:13:38.888Z,99.99
2018-01-08T03:14:38.861Z,99.99
2018-01-08T03:15:38.846Z,99.99
2018-01-08T03:16:38.828Z,99.99
2018-01-08T03:17:38.807Z,99.99
2018-01-08T03:18:38.788Z,99.99
2018-01-08T03:19:38.769Z,99.99
2018-01-08T03:20:38.758Z,99.99
2018-01-08T03:21:38.743Z,99.99
2018-01-08T03:22:38.715Z,99.99
2018-01-08T03:23:38.705Z,99.99
2018-01-08T03:24:38.699Z,99.99
2018-01-08T03:25:38.664Z,99.99
2018-01-08T03:26:38.387Z,99.99
2018-01-08T03:27:38.635Z,99.99
2018-01-08T03:28:38.610Z,99.99
2018-01-08T03:29:38.592Z,99.99
2018-01-08T03:30:38.584Z,99.99
2018-01-08T03:31:38.557Z,99.99
2018-01-08T03:32:38.540Z,99.99
2018-01-08T03:33:38.517Z,99.99
2018-01-08T03:34:38.498Z,99.99
2018-01-08T03:35:38.492Z,99.99
2018-01-08T03:36:38.474Z,99.99
2018-01-08T03:37:38.454Z,99.99
2018-01-08T03:38:38.426Z,99.99
2018-01-08T03:39:38.422Z,99.99
2018-01-08T03:40:38.396Z,99.99
2018-01-08T03:41:38.385Z,99.99
2018-01-08T03:42:38.354Z,99.99
2018-01-08T03:43:38.336Z,99.99
2018-01-08T03:44:38.320Z,99.99
2018-01-08T03:45:38.315Z,99.99
2018-01-08T03:46:38.286Z,99.99
2018-01-08T03:47:38.321Z,99.99
2018-01-08T03:48:38.269Z,99.99
2018-01-08T03:49:38.284Z,99.99
2018-01-08T03:50:38.215Z,99.99
2018-01-08T03:51:38.191Z,99.99
2018-01-08T03:52:38.175Z,99.99
2018-01-08T03:53:38.159Z,99.99
2018-01-08T03:54:38.138Z,99.99
2018-01-08T03:55:38.128Z,99.99
2018-01-08T03:56:38.111Z,99.99
2018-01-08T03:57:38.092Z,99.99
2018-01-08T03:58:38.066Z,99.99
2018-01-08T03:59:38.046Z,99.99
2018-01-08T04:00:38.028Z,99.99
2018-01-08T04:01:38.020Z,99.99
2018-01-08T04:02:37.994Z,99.99
2018-01-08T04:03:37.980Z,99.99
2018-01-08T04:04:37.973Z,99.99
2018-01-08T04:05:37.941Z,99.99
2018-01-08T04:06:37.922Z,99.99
2018-01-08T04:07:37.902Z,99.99
2018-01-08T04:08:37.891Z,99.99
2018-01-08T04:09:37.868Z,99.99
2018-01-08T04:10:37.846Z,99.99
2018-01-08T04:11:37.829Z,99.99
2018-01-08T04:12:37.810Z,99.99
2018-01-08T04:13:37.545Z,99.99
2018-01-08T04:14:37.775Z,99.99
2018-01-08T04:15:37.765Z,99.99
2018-01-08T04:16:37.485Z,99.99
2018-01-08T04:17:37.719Z,99.99
2018-01-08T04:18:37.708Z,99.99
2018-01-08T04:19:37.430Z,99.99
2018-01-08T04:20:37.412Z,99.99
2018-01-08T04:21:37.658Z,99.99
2018-01-08T04:22:37.628Z,99.99
2018-01-08T04:23:37.363Z,99.99
2018-01-08T04:24:37.606Z,99.99
2018-01-08T04:25:37.586Z,99.99
2018-01-08T04:26:37.566Z,99.99
2018-01-08T04:27:37.554Z,99.99
2018-01-08T04:28:37.542Z,99.99
2018-01-08T04:29:37.247Z,99.99
2018-01-08T04:30:37.488Z,99.99
2018-01-08T04:31:37.472Z,99.99
2018-01-08T04:32:37.446Z,99.99
2018-01-08T04:33:37.177Z,99.99
2018-01-08T04:34:37.412Z,99.99
2018-01-08T04:35:37.397Z,99.99
2018-01-08T04:36:37.125Z,99.99
2018-01-08T04:37:37.372Z,99.99
2018-01-08T04:38:37.343Z,99.99
2018-01-08T04:39:37.070Z,99.99
2018-01-08T04:40:37.045Z,99.99
2018-01-08T04:41:37.284Z,99.99
2018-01-08T04:42:37.269Z,99.99
2018-01-08T04:43:37.255Z,99.99
2018-01-08T04:44:37.229Z,99.99
2018-01-08T04:45:37.215Z,99.99
2018-01-08T04:46:36.936Z,99.99
2018-01-08T04:47:37.177Z,99.99
2018-01-08T04:48:37.171Z,99.99
2018-01-08T04:49:37.141Z,99.99
2018-01-08T04:50:37.132Z,99.99
2018-01-08T04:51:37.100Z,99.99
2018-01-08T04:52:37.092Z,99.99
2018-01-08T04:53:37.079Z,99.99
2018-01-08T04:54:37.057Z,99.99
2018-01-08T04:55:37.035Z,99.99
2018-01-08T04:56:36.754Z,99.99
2018-01-08T04:57:36.994Z,99.99
2018-01-08T04:58:36.977Z,99.99
2018-01-08T04:59:36.965Z,99.99
2018-01-08T05:00:36.942Z,99.99
2018-01-08T05:01:36.930Z,99.99
2018-01-08T05:02:36.899Z,99.99
2018-01-08T05:03:36.882Z,99.99
2018-01-08T05:04:36.874Z,99.99
2018-01-08T05:05:36.847Z,99.99
2018-01-08T05:06:36.828Z,99.99
2018-01-08T05:07:36.555Z,99.99
2018-01-08T05:08:36.791Z,99.99
2018-01-08T05:09:36.841Z,99.99
2018-01-08T05:10:36.759Z,99.99
2018-01-08T05:11:36.734Z,99.99
2018-01-08T05:12:36.716Z,99.99
2018-01-08T05:13:36.702Z,99.99
2018-01-08T05:14:36.682Z,99.99
2018-01-08T05:15:36.670Z,99.99
2018-01-08T05:16:36.645Z,99.99
2018-01-08T05:17:36.633Z,99.99
2018-01-08T05:18:36.621Z,99.99
2018-01-08T05:19:36.588Z,99.99
2018-01-08T05:20:36.570Z,99.99
2018-01-08T05:21:36.561Z,99.99
2018-01-08T05:22:36.545Z,99.99
2018-01-08T05:23:36.514Z,99.99
2018-01-08T05:24:36.505Z,99.99
2018-01-08T05:25:36.489Z,99.99
2018-01-08T05:26:36.461Z,99.99
2018-01-08T05:27:36.443Z,99.99
2018-01-08T05:28:36.428Z,99.99
2018-01-08T05:29:36.405Z,99.99
2018-01-08T05:30:36.398Z,99.99
2018-01-08T05:31:36.366Z,99.99
2018-01-08T05:32:36.359Z,99.99
2018-01-08T05:33:36.330Z,99.99
2018-01-08T05:34:36.311Z,99.99
2018-01-08T05:35:36.294Z,99.99
2018-01-08T05:36:36.276Z,99.99
2018-01-08T05:37:36.267Z,99.99
2018-01-08T05:38:36.250Z,99.99
2018-01-08T05:39:36.218Z,99.99
2018-01-08T05:40:36.204Z,99.99
2018-01-08T05:41:36.182Z,99.99
2018-01-08T05:42:36.164Z,99.99
2018-01-08T05:43:36.146Z,99.99
2018-01-08T05:44:36.132Z,99.99
2018-01-08T05:45:36.108Z,99.99
2018-01-08T05:46:36.089Z,99.99
2018-01-08T05:47:35.823Z,99.99
2018-01-08T05:48:36.051Z,99.99
2018-01-08T05:49:35.781Z,99.99
2018-01-08T05:50:35.767Z,99.99
2018-01-08T05:51:35.996Z,99.99
2018-01-08T05:52:35.979Z,99.99
2018-01-08T05:53:35.712Z,99.99
2018-01-08T05:54:35.955Z,99.99
2018-01-08T05:55:35.923Z,99.99
2018-01-08T05:56:35.905Z,99.99
2018-01-08T05:57:35.898Z,99.99
2018-01-08T05:58:35.928Z,99.99
2018-01-08T05:59:35.604Z,99.99
2018-01-08T06:00:35.828Z,99.99
2018-01-08T06:01:35.560Z,99.99
2018-01-08T06:02:35.790Z,99.99
2018-01-08T06:03:35.788Z,99.99
2018-01-08T06:04:35.765Z,99.99
2018-01-08T06:05:35.483Z,99.99
2018-01-08T06:06:35.717Z,99.99
2018-01-08T06:07:35.710Z,99.99
2018-01-08T06:08:35.683Z,99.99
2018-01-08T06:09:35.673Z,99.99
2018-01-08T06:10:35.388Z,99.99
2018-01-08T06:11:35.374Z,99.99
2018-01-08T06:12:35.614Z,99.99
2018-01-08T06:13:35.597Z,99.99
2018-01-08T06:14:35.580Z,99.99
2018-01-08T06:15:35.549Z,99.99
2018-01-08T06:16:35.539Z,99.99
2018-01-08T06:17:35.514Z,99.99
2018-01-08T06:18:35.493Z,99.99
2018-01-08T06:19:35.486Z,99.99
2018-01-08T06:20:35.207Z,99.99
2018-01-08T06:21:35.440Z,99.99
2018-01-08T06:22:35.422Z,99.99
2018-01-08T06:23:35.453Z,99.99
2018-01-08T06:24:35.132Z,99.99
2018-01-08T06:25:35.422Z,99.99
2018-01-08T06:26:35.352Z,99.99
2018-01-08T06:27:35.328Z,99.99
2018-01-08T06:28:35.317Z,99.99
2018-01-08T06:29:35.032Z,99.99
2018-01-08T06:30:35.283Z,99.99
2018-01-08T06:31:35.266Z,99.99
2018-01-08T06:32:35.234Z,99.99
2018-01-08T06:33:35.223Z,99.99
2018-01-08T06:34:35.194Z,99.99
2018-01-08T06:35:35.179Z,99.99
2018-01-08T06:36:35.157Z,99.99
2018-01-08T06:37:35.140Z,99.99
2018-01-08T06:38:34.872Z,99.99
2018-01-08T06:39:35.103Z,99.99
2018-01-08T06:40:34.826Z,99.99
2018-01-08T06:41:35.072Z,99.99
2018-01-08T06:42:35.048Z,99.99
2018-01-08T06:43:35.036Z,99.99
2018-01-08T06:44:35.022Z,99.99
2018-01-08T06:45:35.003Z,99.99
2018-01-08T06:46:34.715Z,99.99
2018-01-08T06:47:34.954Z,99.99
2018-01-08T06:48:34.954Z,99.99
2018-01-08T06:49:34.934Z,99.99
2018-01-08T06:50:34.644Z,99.99
2018-01-08T06:51:34.625Z,99.99
2018-01-08T06:52:34.871Z,99.99
2018-01-08T06:53:34.843Z,99.99
2018-01-08T06:54:34.567Z,99.99
2018-01-08T06:55:34.819Z,99.99
2018-01-08T06:56:34.531Z,99.99
2018-01-08T06:57:34.518Z,99.99
2018-01-08T06:58:34.757Z,99.99
2018-01-08T06:59:34.735Z,99.99
2018-01-08T07:00:34.724Z,99.99
2018-01-08T07:01:34.695Z,99.99
2018-01-08T07:02:34.678Z,99.99
2018-01-08T07:03:34.660Z,99.98
2018-01-08T07:04:34.390Z,99.98
2018-01-08T07:05:34.629Z,99.99
2018-01-08T07:06:34.612Z,99.99
2018-01-08T07:07:34.594Z,99.99
2018-01-08T07:08:34.576Z,99.99
2018-01-08T07:09:34.558Z,99.99
2018-01-08T07:10:34.538Z,99.79
2018-01-08T07:11:34.511Z,99.88
2018-01-08T07:12:34.497Z,99.79
2018-01-08T07:13:34.483Z,99.79
2018-01-08T07:14:34.468Z,99.98
2018-01-08T07:15:34.181Z,99.79
2018-01-08T07:16:34.426Z,99.88
2018-01-08T07:17:34.413Z,99.79
2018-01-08T07:18:34.126Z,99.79
2018-01-08T07:19:34.374Z,99.99
2018-01-08T07:20:34.386Z,99.99
2018-01-08T07:21:34.335Z,99.99
2018-01-08T07:22:34.050Z,99.99
2018-01-08T07:23:34.307Z,99.88
2018-01-08T07:24:34.018Z,99.79
2018-01-08T07:25:34.251Z,99.99
2018-01-08T07:26:34.241Z,99.99
2018-01-08T07:27:34.217Z,99.99
2018-01-08T07:28:33.944Z,99.99
2018-01-08T07:29:34.180Z,99.98
2018-01-08T07:30:34.169Z,99.99
2018-01-08T07:31:34.148Z,99.99
2018-01-08T07:32:34.120Z,99.99
2018-01-08T07:33:33.849Z,99.99
2018-01-08T07:34:34.149Z,99.6
2018-01-08T07:35:34.071Z,99.99
2018-01-08T07:36:33.790Z,99.99
2018-01-08T07:37:34.042Z,99.99
2018-01-08T07:38:34.021Z,99.99
2018-01-08T07:39:33.995Z,99.99
2018-01-08T07:40:33.975Z,99.99
2018-01-08T07:41:33.708Z,99.99
2018-01-08T07:42:33.991Z,99.98
2018-01-08T07:43:33.670Z,99.88
2018-01-08T07:44:33.647Z,99.88
2018-01-08T07:45:33.892Z,99.98
2018-01-08T07:46:33.874Z,99.88
2018-01-08T07:47:33.858Z,99.98
2018-01-08T07:48:33.836Z,99.88
2018-01-08T07:49:33.820Z,99.88
2018-01-08T07:50:33.790Z,99.88
2018-01-08T07:51:33.775Z,99.88
2018-01-08T07:52:33.761Z,99.88
2018-01-08T07:53:33.747Z,99.98
2018-01-08T07:54:33.779Z,99.88
2018-01-08T07:55:33.699Z,99.98
2018-01-08T07:56:33.686Z,99.79
2018-01-08T07:57:33.668Z,99.7
2018-01-08T07:58:33.652Z,99.7
2018-01-08T07:59:33.624Z,99.7
2018-01-08T08:00:33.615Z,99.51
2018-01-08T08:01:33.586Z,99.88
2018-01-08T08:02:33.569Z,99.79
2018-01-08T08:03:33.549Z,99.6
2018-01-08T08:04:33.275Z,99.7
2018-01-08T08:05:33.517Z,99.7
2018-01-08T08:06:33.503Z,99.7
2018-01-08T08:07:33.490Z,99.51
2018-01-08T08:08:33.458Z,99.51
2018-01-08T08:09:33.438Z,99.79
2018-01-08T08:10:33.422Z,99.88
2018-01-08T08:11:33.404Z,99.88
2018-01-08T08:12:33.392Z,99.88
2018-01-08T08:13:33.376Z,99.88
2018-01-08T08:14:33.347Z,99.98
2018-01-08T08:15:33.339Z,99.98
2018-01-08T08:16:33.312Z,99.13
2018-01-08T08:17:33.036Z,99.32
2018-01-08T08:18:33.032Z,99.32
2018-01-08T08:19:33.271Z,99.32
2018-01-08T08:20:33.248Z,99.51
2018-01-08T08:21:32.988Z,99.32
2018-01-08T08:22:33.200Z,99.32
2018-01-08T08:23:33.195Z,99.32
2018-01-08T08:24:32.907Z,99.6
2018-01-08T08:25:32.901Z,99.51
2018-01-08T08:26:33.141Z,99.51
2018-01-08T08:27:33.129Z,99.51
2018-01-08T08:28:33.131Z,98.94
2018-01-08T08:29:33.077Z,98.94
2018-01-08T08:30:33.062Z,99.04
2018-01-08T08:31:33.037Z,98.85
2018-01-08T08:32:33.040Z,99.04
2018-01-08T08:33:33.023Z,99.22
2018-01-08T08:34:32.734Z,99.13
2018-01-08T08:35:32.973Z,99.22
2018-01-08T08:36:32.696Z,98.94
2018-01-08T08:37:32.960Z,98.85
2018-01-08T08:38:32.925Z,99.13
2018-01-08T08:39:32.909Z,98.57
2018-01-08T08:40:33.002Z,98.75
2018-01-08T08:41:32.863Z,98.75
2018-01-08T08:42:32.837Z,98.57
2018-01-08T08:43:32.847Z,98.28
2018-01-08T08:44:32.803Z,98.47
2018-01-08T08:45:32.790Z,98.57
2018-01-08T08:46:32.768Z,98.57
2018-01-08T08:47:32.493Z,98.57
2018-01-08T08:48:32.755Z,98.8
2018-01-08T08:49:32.728Z,97.96
2018-01-08T08:50:32.693Z,98.05
2018-01-08T08:51:32.704Z,98.43
2018-01-08T08:52:32.694Z,98.24
2018-01-08T08:53:32.690Z,97.86
2018-01-08T08:54:32.656Z,98.24
2018-01-08T08:55:32.671Z,98.14
2018-01-08T08:56:32.612Z,98.14
2018-01-08T08:57:32.314Z,98.43
2018-01-08T08:58:32.312Z,98.61
2018-01-08T08:59:32.286Z,97.86
2018-01-08T09:00:32.513Z,97.77
2018-01-08T09:01:32.499Z,97.77
2018-01-08T09:02:32.480Z,97.96
2018-01-08T09:03:32.505Z,98.05
2018-01-08T09:04:32.448Z,97.86
2018-01-08T09:05:32.486Z,97.96
2018-01-08T09:06:32.425Z,97.67
2018-01-08T09:07:32.446Z,97.77
2018-01-08T09:08:32.372Z,97.39
2018-01-08T09:09:32.354Z,97.48
2018-01-08T09:10:32.335Z,97.67
2018-01-08T09:11:32.065Z,97.67
2018-01-08T09:12:32.312Z,97.48
2018-01-08T09:13:32.294Z,97.48
2018-01-08T09:14:32.368Z,97.48
2018-01-08T09:15:32.484Z,97.58
2018-01-08T09:16:32.247Z,97.48
2018-01-08T09:17:32.254Z,97.39
2018-01-08T09:18:32.201Z,97.2
2018-01-08T09:19:31.940Z,97.2
2018-01-08T09:20:32.163Z,97.29
2018-01-08T09:21:32.153Z,96.73
2018-01-08T09:22:32.132Z,97.29
2018-01-08T09:23:32.133Z,97.2
2018-01-08T09:24:32.117Z,97.2
2018-01-08T09:25:32.149Z,96.44
2018-01-08T09:26:32.084Z,97.01
2018-01-08T09:27:32.889Z,97.1
2018-01-08T09:28:32.097Z,96.82
2018-01-08T09:29:32.074Z,96.82
2018-01-08T09:30:31.784Z,96.21
2018-01-08T09:31:32.519Z,96.4
2018-01-08T09:32:32.005Z,97.25
2018-01-08T09:33:31.999Z,96.49
2018-01-08T09:34:31.978Z,96.4
2018-01-08T09:35:31.916Z,96.4
2018-01-08T09:36:31.917Z,96.21
2018-01-08T09:37:31.988Z,96.21
2018-01-08T09:38:31.864Z,95.54
2018-01-08T09:39:31.624Z,95.92
2018-01-08T09:40:31.829Z,95.73
2018-01-08T09:41:31.810Z,96.21
2018-01-08T09:42:31.786Z,95.73
2018-01-08T09:43:31.785Z,95.83
2018-01-08T09:44:31.740Z,95.64
2018-01-08T09:45:31.759Z,95.73
2018-01-08T09:46:31.936Z,95.64
2018-01-08T09:47:31.725Z,95.92
2018-01-08T09:48:31.686Z,95.64
2018-01-08T09:49:31.678Z,95.73
2018-01-08T09:50:31.662Z,96.3
2018-01-08T09:51:31.619Z,95.64
2018-01-08T09:52:31.635Z,95.45
2018-01-08T09:53:31.597Z,95.73
2018-01-08T09:54:31.316Z,95.54
2018-01-08T09:55:31.553Z,96.02
2018-01-08T09:56:31.556Z,95.92
2018-01-08T09:57:31.542Z,95.73
2018-01-08T09:58:31.527Z,95.45
2018-01-08T09:59:31.491Z,96.02
2018-01-08T10:00:31.492Z,95.26
2018-01-08T10:01:31.448Z,95.36
2018-01-08T10:02:31.433Z,95.45
2018-01-08T10:03:31.183Z,95.83
2018-01-08T10:04:31.406Z,95.64
2018-01-08T10:05:31.389Z,94.98
2018-01-08T10:06:31.370Z,95.26
2018-01-08T10:07:31.353Z,94.79
2018-01-08T10:08:31.329Z,95.45
2018-01-08T10:09:31.322Z,94.89
2018-01-08T10:10:31.048Z,95.64
2018-01-08T10:11:31.029Z,95.07
2018-01-08T10:12:31.271Z,94.22
2018-01-08T10:13:31.262Z,94.46
2018-01-08T10:14:31.237Z,94.27
2018-01-08T10:15:31.237Z,93.99
2018-01-08T10:16:31.205Z,93.7
2018-01-08T10:17:31.184Z,93.8
2018-01-08T10:18:31.171Z,93.42
2018-01-08T10:19:31.163Z,92.94
2018-01-08T10:20:31.137Z,93.8
2018-01-08T10:21:31.126Z,93.13
2018-01-08T10:22:31.096Z,92.38
2018-01-08T10:23:31.102Z,92.19
2018-01-08T10:24:31.065Z,91.72
2018-01-08T10:25:31.044Z,91.72
2018-01-08T10:26:31.030Z,91.62
2018-01-08T10:27:31.018Z,91.81
2018-01-08T10:28:31.018Z,91.24
2018-01-08T10:29:30.777Z,91.72
2018-01-08T10:30:30.974Z,91.24
2018-01-08T10:31:31.045Z,91.62
2018-01-08T10:32:31.221Z,91.2
2018-01-08T10:33:30.692Z,90.63
2018-01-08T10:34:30.964Z,90.06
2018-01-08T10:35:30.942Z,89.97
2018-01-08T10:36:30.905Z,89.5
2018-01-08T10:37:30.910Z,89.69
2018-01-08T10:38:30.599Z,90.25
2018-01-08T10:39:30.835Z,89.31
2018-01-08T10:40:30.818Z,88.36
2018-01-08T10:41:30.816Z,88.26
2018-01-08T10:42:30.778Z,88.07
2018-01-08T10:43:30.768Z,87.51
2018-01-08T10:44:30.755Z,88.26
2018-01-08T10:45:30.465Z,87.98
2018-01-08T10:46:30.704Z,87.79
2018-01-08T10:47:30.698Z,87.41
2018-01-08T10:48:30.731Z,87.98
2018-01-08T10:49:30.667Z,88.17
2018-01-08T10:50:30.650Z,87.79
2018-01-08T10:51:30.632Z,87.41
2018-01-08T10:52:30.621Z,87.13
2018-01-08T10:53:30.621Z,86.85
2018-01-08T10:54:30.574Z,86.37
2018-01-08T10:55:30.345Z,86.18
2018-01-08T10:56:30.549Z,85.52
2018-01-08T10:57:30.553Z,85.9
2018-01-08T10:58:30.511Z,85.33
2018-01-08T10:59:30.261Z,85.33
2018-01-08T11:00:30.497Z,85.33
2018-01-08T11:01:30.485Z,84.77
2018-01-08T11:02:30.463Z,84.86
2018-01-08T11:03:30.191Z,85.24
2018-01-08T11:04:30.434Z,84.86
2018-01-08T11:05:30.412Z,84.1
2018-01-08T11:06:30.394Z,83.91
2018-01-08T11:07:30.379Z,82.5
2018-01-08T11:08:30.398Z,82.78
2018-01-08T11:09:30.337Z,82.78
2018-01-08T11:10:30.331Z,83.63
2018-01-08T11:11:30.312Z,83.63
2018-01-08T11:12:30.292Z,83.06
2018-01-08T11:13:30.329Z,82.87
2018-01-08T11:14:30.272Z,82.97
2018-01-08T11:15:30.263Z,83.72
2018-01-08T11:16:30.255Z,83.25
2018-01-08T11:17:30.256Z,82.97
2018-01-08T11:18:30.198Z,83.2
2018-01-08T11:19:30.187Z,81.96
2018-01-08T11:20:30.170Z,81.59
2018-01-08T11:21:30.171Z,81.59
2018-01-08T11:22:30.170Z,81.59
2018-01-08T11:23:30.115Z,81.87
2018-01-08T11:24:30.111Z,81.87
2018-01-08T11:25:30.140Z,81.87
2018-01-08T11:26:30.072Z,80.26
2018-01-08T11:27:30.061Z,79.6
2018-01-08T11:28:29.821Z,79.32
2018-01-08T11:29:30.081Z,78.85
2018-01-08T11:30:30.021Z,78.94
2018-01-08T11:31:30.011Z,78.08
2018-01-08T11:32:29.997Z,78.46
2018-01-08T11:33:29.986Z,79.03
2018-01-08T11:34:30.004Z,78.85
2018-01-08T11:35:29.940Z,78.56
2018-01-08T11:36:29.981Z,78.56
2018-01-08T11:37:29.902Z,77.23
2018-01-08T11:38:29.949Z,77.33
2018-01-08T11:39:29.881Z,77.14
2018-01-08T11:40:29.889Z,76.67
2018-01-08T11:41:29.840Z,76.1
2018-01-08T11:42:29.828Z,76.19
2018-01-08T11:43:29.804Z,76.1
2018-01-08T11:44:29.822Z,76.19
2018-01-08T11:45:29.802Z,76.1
2018-01-08T11:46:29.796Z,76.1
2018-01-08T11:47:29.762Z,76.95
2018-01-08T11:48:29.732Z,76.67
2018-01-08T11:49:29.768Z,76.19
2018-01-08T11:50:29.697Z,76
2018-01-08T11:51:29.725Z,76.57
2018-01-08T11:52:29.675Z,76.76
2018-01-08T11:53:29.670Z,76.76
2018-01-08T11:54:29.643Z,77.04
2018-01-08T11:55:29.656Z,76.95
2018-01-08T11:56:29.646Z,76.86
2018-01-08T11:57:29.628Z,75.43
2018-01-08T11:58:29.354Z,75.72
2018-01-08T11:59:30.154Z,75.24
2018-01-08T12:00:29.890Z,75.72
2018-01-08T12:01:29.557Z,76.19
2018-01-08T12:02:29.512Z,76.29
2018-01-08T12:03:29.540Z,75.62
2018-01-08T12:04:29.522Z,74.3
2018-01-08T12:05:29.679Z,73.83
2018-01-08T12:06:29.461Z,74.02
2018-01-08T12:07:29.446Z,73.16
2018-01-08T12:08:29.168Z,73.92
2018-01-08T12:09:29.432Z,73.92
2018-01-08T12:10:29.420Z,73.35
2018-01-08T12:11:29.406Z,72.12
2018-01-08T12:12:29.419Z,71.65
2018-01-08T12:13:29.089Z,72.22
2018-01-08T12:14:29.082Z,72.22
2018-01-08T12:15:29.322Z,71.74
2018-01-08T12:16:29.047Z,71.17
2018-01-08T12:17:29.296Z,70.32
2018-01-08T12:18:29.037Z,70.7
2018-01-08T12:19:29.273Z,70.51
2018-01-08T12:20:29.271Z,69.95
2018-01-08T12:21:29.258Z,69.57
2018-01-08T12:22:29.246Z,69.95
2018-01-08T12:23:29.210Z,69.95
2018-01-08T12:24:29.196Z,69.76
2018-01-08T12:25:29.216Z,70.04
2018-01-08T12:26:29.156Z,69.38
2018-01-08T12:27:29.139Z,69.47
2018-01-08T12:28:29.150Z,69.09
2018-01-08T12:29:29.129Z,69
2018-01-08T12:30:29.340Z,68.9
2018-01-08T12:31:29.126Z,69.09
2018-01-08T12:32:29.064Z,69.57
2018-01-08T12:33:29.089Z,69.47
2018-01-08T12:34:29.129Z,69.76
2018-01-08T12:35:29.064Z,69.09
2018-01-08T12:36:29.016Z,69.38
2018-01-08T12:37:29.008Z,70.04
2018-01-08T12:38:28.974Z,70.23
2018-01-08T12:39:28.981Z,71.08
2018-01-08T12:40:28.968Z,71.36
2018-01-08T12:41:28.961Z,71.84
2018-01-08T12:42:28.949Z,72.31
2018-01-08T12:43:28.921Z,72.41
2018-01-08T12:44:28.902Z,72.97
2018-01-08T12:45:28.928Z,73.35
2018-01-08T12:46:28.605Z,73.73
2018-01-08T12:47:28.864Z,73.54
2018-01-08T12:48:28.839Z,73.64
2018-01-08T12:49:28.860Z,73.83
2018-01-08T12:50:28.569Z,73.73
2018-01-08T12:51:28.764Z,74.11
2018-01-08T12:52:28.793Z,73.92
2018-01-08T12:53:28.527Z,74.49
2018-01-08T12:54:28.508Z,73.83